Time;durP1;ratioP1;P1;durP2;ratioP2;P2;SDS_P1;SDS_P2;PMS_P1;PMS_P2;Temp;Humidity;BMP_temperature;BMP_pressure;BME280_temperature;BME280_humidity;BME280_pressure;Samples;Min_cycle;Max_cycle;Signal;HPM_P1;HPM_P2
2021/10/18 00:01:19;;;;;;;4.95;3.92;;;;;17.30;102013.00;;;;5038140;28;20196;-80
2021/10/18 00:03:46;;;;;;;6.43;4.10;;;;;17.30;102014.00;;;;5050824;28;20199;-80
2021/10/18 00:06:13;;;;;;;5.53;4.10;;;;;17.30;102020.00;;;;5051758;28;20207;-80
2021/10/18 00:08:40;;;;;;;4.93;3.88;;;;;17.20;102017.00;;;;5038340;28;20719;-79
2021/10/18 00:11:09;;;;;;;4.65;3.53;;;;;17.20;102021.00;;;;5031091;28;20200;-79
2021/10/18 00:13:36;;;;;;;5.22;4.07;;;;;17.20;102024.00;;;;5034214;28;20204;-80
2021/10/18 00:16:04;;;;;;;5.05;4.20;;;;;17.20;102029.00;;;;5070383;28;20218;-79
2021/10/18 00:18:32;;;;;;;5.88;3.85;;;;;17.10;102022.00;;;;5058120;28;20200;-79
2021/10/18 00:20:59;;;;;;;5.85;4.07;;;;;17.10;102019.00;;;;5041280;28;20199;-79
2021/10/18 00:23:26;;;;;;;5.85;4.13;;;;;17.10;102023.00;;;;5059999;28;20199;-80
2021/10/18 00:25:54;;;;;;;6.30;4.28;;;;;17.10;102028.00;;;;5035911;28;20213;-79
2021/10/18 00:28:22;;;;;;;5.22;4.20;;;;;17.00;102029.00;;;;5033365;28;20196;-79
2021/10/18 00:30:50;;;;;;;4.47;3.92;;;;;17.00;102034.00;;;;5038622;28;21363;-79
2021/10/18 00:33:17;;;;;;;5.72;3.95;;;;;17.00;102031.00;;;;5049328;28;20193;-80
2021/10/18 00:35:44;;;;;;;4.45;4.03;;;;;17.00;102031.00;;;;5061507;28;20203;-80
2021/10/18 00:38:12;;;;;;;6.15;4.25;;;;;17.00;102036.00;;;;5067949;28;20610;-79
2021/10/18 00:40:39;;;;;;;7.10;4.13;;;;;16.90;102035.00;;;;5050705;28;20224;-80
2021/10/18 00:43:07;;;;;;;6.47;4.07;;;;;16.90;102041.00;;;;5033895;28;20207;-79
2021/10/18 00:45:35;;;;;;;6.97;4.35;;;;;16.90;102043.00;;;;5030687;28;20628;-79
2021/10/18 00:48:03;;;;;;;5.82;3.90;;;;;16.90;102042.00;;;;5040797;28;20207;-80
2021/10/18 00:50:30;;;;;;;6.28;4.57;;;;;16.80;102038.00;;;;5030723;28;20209;-79
2021/10/18 00:52:59;;;;;;;5.43;4.28;;;;;16.80;102035.00;;;;5030417;28;20204;-79
2021/10/18 00:55:26;;;;;;;4.25;3.70;;;;;16.80;102041.00;;;;5030889;28;20200;-80
2021/10/18 00:57:55;;;;;;;5.50;3.78;;;;;16.80;102039.00;;;;5031783;28;20242;-79
2021/10/18 01:00:22;;;;;;;5.35;3.83;;;;;16.80;102047.00;;;;5030263;28;20208;-79
2021/10/18 01:02:51;;;;;;;6.57;4.35;;;;;16.70;102042.00;;;;5047536;28;20199;-80
2021/10/18 01:05:18;;;;;;;6.50;4.65;;;;;16.80;102039.00;;;;5060993;28;20207;-79
2021/10/18 01:07:47;;;;;;;4.30;3.47;;;;;16.70;102045.00;;;;5067917;28;20199;-79
2021/10/18 01:10:14;;;;;;;5.53;3.63;;;;;16.70;102038.00;;;;5029994;28;20244;-80
2021/10/18 01:12:41;;;;;;;6.70;4.05;;;;;16.70;102035.00;;;;5034329;28;20223;-80
2021/10/18 01:15:09;;;;;;;7.03;4.28;;;;;16.70;102032.00;;;;5046774;28;20204;-79
2021/10/18 01:17:36;;;;;;;4.20;3.40;;;;;16.70;102034.00;;;;5031150;28;20710;-80
2021/10/18 01:20:11;;;;;;;5.65;4.18;;;;;16.70;102028.00;;;;5029605;28;20196;-79
2021/10/18 01:22:39;;;;;;;5.45;4.35;;;;;16.70;102026.00;;;;5029126;28;20226;-79
2021/10/18 01:25:07;;;;;;;5.85;3.88;;;;;16.70;102026.00;;;;5029107;28;20678;-80
2021/10/18 01:27:35;;;;;;;5.65;3.80;;;;;16.70;102022.00;;;;5029604;28;20212;-79
2021/10/18 01:30:02;;;;;;;4.93;4.35;;;;;16.70;102024.00;;;;5031925;28;20211;-79
2021/10/18 01:32:29;;;;;;;4.55;3.50;;;;;16.70;102027.00;;;;5045527;28;20200;-79
2021/10/18 01:34:56;;;;;;;5.22;3.97;;;;;16.70;102018.00;;;;5041727;28;20200;-80
2021/10/18 01:37:24;;;;;;;6.75;4.07;;;;;16.60;102020.00;;;;5049489;28;20792;-79
2021/10/18 01:39:52;;;;;;;4.72;4.30;;;;;16.60;102024.00;;;;5031850;28;20234;-79
2021/10/18 01:42:19;;;;;;;4.55;3.58;;;;;16.60;102011.00;;;;5029049;28;20204;-80
2021/10/18 01:44:47;;;;;;;4.20;3.55;;;;;16.60;102018.00;;;;5038424;28;20577;-79
2021/10/18 01:47:14;;;;;;;4.60;4.15;;;;;16.60;102021.00;;;;5049865;28;20212;-79
2021/10/18 01:49:41;;;;;;;3.95;3.38;;;;;16.60;102016.00;;;;5048818;28;20199;-80
2021/10/18 01:52:08;;;;;;;4.72;3.90;;;;;16.50;102023.00;;;;5049080;28;20207;-79
2021/10/18 01:54:36;;;;;;;4.60;3.58;;;;;16.50;102014.00;;;;5049522;28;20674;-79
2021/10/18 01:57:05;;;;;;;4.82;4.03;;;;;16.50;102011.00;;;;5049050;28;20238;-80
2021/10/18 01:59:32;;;;;;;5.57;3.80;;;;;16.50;102007.00;;;;5048877;28;20227;-79
2021/10/18 02:02:00;;;;;;;4.32;3.78;;;;;16.40;102005.00;;;;5030677;28;20200;-79
2021/10/18 02:04:27;;;;;;;4.90;3.63;;;;;16.40;102006.00;;;;5028668;28;20196;-79
2021/10/18 02:06:54;;;;;;;6.10;4.45;;;;;16.40;102008.00;;;;5029420;28;20227;-79
2021/10/18 02:09:21;;;;;;;9.40;4.70;;;;;16.30;102002.00;;;;5029244;28;20192;-79
2021/10/18 02:11:49;;;;;;;4.80;4.13;;;;;16.30;102013.00;;;;5029323;28;20208;-79
2021/10/18 02:14:17;;;;;;;6.32;4.50;;;;;16.30;102001.00;;;;5028711;28;20188;-79
2021/10/18 02:16:45;;;;;;;7.93;3.42;;;;;16.20;102009.00;;;;5049629;28;20215;-79
2021/10/18 02:19:12;;;;;;;5.07;4.40;;;;;16.20;102007.00;;;;5046629;28;20299;-79
2021/10/18 02:21:39;;;;;;;5.80;4.30;;;;;16.20;102005.00;;;;5029528;28;20200;-79
2021/10/18 02:24:07;;;;;;;7.10;4.45;;;;;16.20;102007.00;;;;5032548;28;20207;-79
2021/10/18 02:26:34;;;;;;;4.55;3.80;;;;;16.10;102005.00;;;;5068091;28;20198;-79
2021/10/18 02:29:01;;;;;;;5.57;4.35;;;;;16.10;101999.00;;;;5051963;28;20195;-79
2021/10/18 02:31:30;;;;;;;7.00;3.95;;;;;16.00;101998.00;;;;5049219;28;20200;-79
2021/10/18 02:33:57;;;;;;;4.22;3.83;;;;;16.00;101992.00;;;;5048946;28;20207;-79
2021/10/18 02:36:24;;;;;;;5.03;4.15;;;;;16.00;101995.00;;;;5049790;28;20208;-79
2021/10/18 02:38:51;;;;;;;5.32;3.70;;;;;16.00;101995.00;;;;5053211;28;20683;-79
2021/10/18 02:41:18;;;;;;;6.45;4.47;;;;;15.90;101989.00;;;;5039478;28;20240;-79
2021/10/18 02:43:46;;;;;;;5.45;4.18;;;;;15.90;101993.00;;;;5028664;28;20200;-79
2021/10/18 02:46:13;;;;;;;5.85;4.50;;;;;15.90;101988.00;;;;5029629;28;20211;-79
2021/10/18 02:48:42;;;;;;;6.18;4.32;;;;;15.80;101987.00;;;;5047950;28;20588;-79
2021/10/18 02:51:09;;;;;;;7.75;4.70;;;;;15.80;101987.00;;;;5048895;28;20199;-79
2021/10/18 02:53:36;;;;;;;8.63;4.55;;;;;15.80;101981.00;;;;5048757;28;20253;-79
2021/10/18 02:56:03;;;;;;;6.25;4.70;;;;;15.80;101978.00;;;;5048630;28;20207;-79
2021/10/18 02:58:30;;;;;;;4.97;4.20;;;;;15.70;101976.00;;;;5034924;28;20653;-79
2021/10/18 03:00:58;;;;;;;6.07;4.43;;;;;15.70;101983.00;;;;5029170;28;20207;-79
2021/10/18 03:03:25;;;;;;;5.30;4.25;;;;;15.70;101976.00;;;;5049024;28;20188;-79
2021/10/18 03:05:53;;;;;;;7.32;4.43;;;;;15.70;101974.00;;;;5048820;28;20206;-80
2021/10/18 03:08:21;;;;;;;7.15;4.43;;;;;15.60;101976.00;;;;5047807;28;20207;-79
2021/10/18 03:10:48;;;;;;;4.90;3.83;;;;;15.60;101969.00;;;;5048222;28;20700;-79
2021/10/18 03:13:16;;;;;;;5.53;4.65;;;;;15.60;101970.00;;;;5048360;28;20230;-79
2021/10/18 03:15:44;;;;;;;4.38;3.85;;;;;15.60;101966.00;;;;5035316;28;20787;-79
2021/10/18 03:18:11;;;;;;;5.70;5.10;;;;;15.60;101969.00;;;;5036945;28;20712;-79
2021/10/18 03:20:39;;;;;;;5.75;4.68;;;;;15.50;101964.00;;;;5048494;28;20673;-79
2021/10/18 03:23:07;;;;;;;5.32;4.80;;;;;15.50;101973.00;;;;5050059;28;20203;-79
2021/10/18 03:25:35;;;;;;;5.82;4.90;;;;;15.50;101964.00;;;;5043814;28;20212;-80
2021/10/18 03:28:03;;;;;;;5.72;4.35;;;;;15.50;101971.00;;;;5044037;28;20230;-79
2021/10/18 03:30:30;;;;;;;6.03;5.30;;;;;15.50;101973.00;;;;5052415;28;20203;-79
2021/10/18 03:32:58;;;;;;;5.80;4.30;;;;;15.50;101980.00;;;;5036578;28;20670;-79
2021/10/18 03:35:25;;;;;;;5.60;4.60;;;;;15.40;101978.00;;;;5040572;28;20306;-79
2021/10/18 03:37:53;;;;;;;5.93;4.80;;;;;15.40;101984.00;;;;5042168;28;20227;-79
2021/10/18 03:40:22;;;;;;;6.45;4.90;;;;;15.40;101986.00;;;;5032542;28;20231;-80
2021/10/18 03:42:49;;;;;;;6.63;4.90;;;;;15.40;101998.00;;;;5032435;28;20208;-79
2021/10/18 03:45:16;;;;;;;6.25;5.25;;;;;15.40;102000.00;;;;5032715;28;20207;-79
2021/10/18 03:47:44;;;;;;;7.15;4.93;;;;;15.30;101998.00;;;;5046487;28;20670;-80
2021/10/18 03:50:11;;;;;;;8.27;5.32;;;;;15.30;102000.00;;;;5054733;28;20206;-79
2021/10/18 03:52:39;;;;;;;6.13;5.20;;;;;15.30;102001.00;;;;5072506;28;20214;-79
2021/10/18 03:55:06;;;;;;;7.20;4.70;;;;;15.30;101999.00;;;;5071721;28;20207;-79
2021/10/18 03:57:36;;;;;;;6.60;4.82;;;;;15.20;101995.00;;;;5051853;28;20232;-79
2021/10/18 04:00:04;;;;;;;6.95;4.68;;;;;15.20;102003.00;;;;5032017;28;20208;-79
2021/10/18 04:02:31;;;;;;;6.60;4.82;;;;;15.20;102005.00;;;;5045267;28;20200;-79
2021/10/18 04:04:58;;;;;;;7.10;5.03;;;;;15.20;102005.00;;;;5051514;28;20204;-79
2021/10/18 04:07:26;;;;;;;7.47;5.05;;;;;15.20;102012.00;;;;5038913;28;20196;-79
2021/10/18 04:09:53;;;;;;;7.28;5.57;;;;;15.20;102004.00;;;;5050499;28;20211;-79
2021/10/18 04:12:20;;;;;;;6.25;4.82;;;;;15.10;102013.00;;;;5036475;28;20208;-79
2021/10/18 04:14:49;;;;;;;7.32;5.25;;;;;15.10;102006.00;;;;5051992;28;20208;-79
2021/10/18 04:17:16;;;;;;;7.40;4.82;;;;;15.10;102009.00;;;;5044115;28;20220;-79
2021/10/18 04:19:43;;;;;;;8.60;5.47;;;;;15.10;102011.00;;;;5046956;28;20202;-79
2021/10/18 04:22:11;;;;;;;5.15;4.65;;;;;15.00;102006.00;;;;5051097;28;20217;-79
2021/10/18 04:24:38;;;;;;;5.22;4.53;;;;;15.00;102007.00;;;;5031703;28;20199;-79
2021/10/18 04:27:05;;;;;;;6.22;4.80;;;;;15.00;102006.00;;;;5044260;28;20200;-79
2021/10/18 04:29:32;;;;;;;8.68;5.85;;;;;15.00;102004.00;;;;5047847;28;20207;-79
2021/10/18 04:32:01;;;;;;;8.52;5.93;;;;;15.00;102002.00;;;;5050654;28;20222;-79
2021/10/18 04:34:29;;;;;;;5.57;4.72;;;;;15.00;102005.00;;;;5051106;28;20208;-79
2021/10/18 04:36:57;;;;;;;7.20;5.53;;;;;14.90;102000.00;;;;5046385;28;20205;-79
2021/10/18 04:39:24;;;;;;;7.15;5.63;;;;;14.90;102000.00;;;;5033037;28;21130;-80
2021/10/18 04:41:51;;;;;;;5.78;5.00;;;;;14.90;102006.00;;;;5050708;28;20682;-79
2021/10/18 04:44:19;;;;;;;7.22;5.45;;;;;14.90;101997.00;;;;5032869;28;20207;-79
2021/10/18 04:46:47;;;;;;;7.07;5.47;;;;;14.90;102002.00;;;;5036914;28;20216;-79
2021/10/18 04:49:16;;;;;;;5.95;5.25;;;;;14.90;102005.00;;;;5054902;28;20203;-79
2021/10/18 04:51:43;;;;;;;6.75;5.50;;;;;14.90;102005.00;;;;5071507;28;20221;-79
2021/10/18 04:54:10;;;;;;;7.60;6.18;;;;;14.90;102007.00;;;;5062771;28;20295;-79
2021/10/18 04:56:37;;;;;;;6.93;5.32;;;;;14.80;102002.00;;;;5042460;28;20199;-80
2021/10/18 04:59:05;;;;;;;9.48;5.70;;;;;14.80;101998.00;;;;5031781;28;20235;-79
2021/10/18 05:01:32;;;;;;;9.25;5.50;;;;;14.80;102003.00;;;;5042823;28;20207;-79
2021/10/18 05:03:59;;;;;;;7.80;5.78;;;;;14.80;102017.00;;;;5050274;28;20693;-79
2021/10/18 05:06:28;;;;;;;7.80;5.57;;;;;14.80;102007.00;;;;5051182;28;20562;-80
2021/10/18 05:08:55;;;;;;;8.10;5.47;;;;;14.80;102014.00;;;;5049024;28;20211;-79
2021/10/18 05:11:22;;;;;;;6.75;5.65;;;;;14.80;102007.00;;;;5031367;28;20199;-79
2021/10/18 05:13:50;;;;;;;7.25;5.53;;;;;14.70;102009.00;;;;5036716;28;20206;-79
2021/10/18 05:16:17;;;;;;;7.07;5.57;;;;;14.80;102012.00;;;;5050910;28;20195;-80
2021/10/18 05:18:44;;;;;;;9.07;5.28;;;;;14.70;102019.00;;;;5035444;28;20235;-79
2021/10/18 05:21:11;;;;;;;8.10;5.80;;;;;14.70;102018.00;;;;5030484;28;20199;-79
2021/10/18 05:23:40;;;;;;;7.00;5.28;;;;;14.70;102021.00;;;;5030766;28;20211;-80
2021/10/18 05:26:07;;;;;;;6.78;5.25;;;;;14.70;102024.00;;;;5030370;28;20196;-79
2021/10/18 05:28:34;;;;;;;8.20;6.00;;;;;14.70;102028.00;;;;5036436;28;20207;-80
2021/10/18 05:31:02;;;;;;;7.70;5.47;;;;;14.70;102032.00;;;;5037684;28;20207;-80
2021/10/18 05:33:29;;;;;;;8.65;5.60;;;;;14.70;102026.00;;;;5050392;28;20203;-79
2021/10/18 05:35:56;;;;;;;7.53;5.88;;;;;14.70;102029.00;;;;5035743;28;21066;-80
2021/10/18 05:38:23;;;;;;;8.65;5.65;;;;;14.70;102033.00;;;;5030491;28;20231;-79
2021/10/18 05:40:54;;;;;;;6.32;5.60;;;;;14.60;102029.00;;;;5046165;28;20228;-79
2021/10/18 05:43:21;;;;;;;6.85;5.60;;;;;14.70;102031.00;;;;5037497;28;20307;-80
2021/10/18 05:45:48;;;;;;;7.47;5.85;;;;;14.60;102024.00;;;;5041545;28;20288;-80
2021/10/18 05:48:16;;;;;;;6.82;5.90;;;;;14.60;102019.00;;;;5038786;28;20192;-79
2021/10/18 05:50:45;;;;;;;7.53;5.78;;;;;14.60;102021.00;;;;5036139;28;20203;-80
2021/10/18 05:53:13;;;;;;;10.68;6.30;;;;;14.60;102023.00;;;;5035312;28;20231;-79
2021/10/18 05:55:41;;;;;;;7.40;5.93;;;;;14.60;102024.00;;;;5038669;28;20196;-79
2021/10/18 05:58:11;;;;;;;7.18;5.82;;;;;14.60;102016.00;;;;5038612;28;20232;-79
2021/10/18 06:00:41;;;;;;;7.45;6.00;;;;;14.60;102020.00;;;;5046554;28;20216;-79
2021/10/18 06:03:08;;;;;;;7.15;5.97;;;;;14.60;102019.00;;;;5048212;28;20202;-80
2021/10/18 06:05:42;;;;;;;7.47;5.55;;;;;14.60;102031.00;;;;5035026;28;20200;-79
2021/10/18 06:08:10;;;;;;;7.15;6.13;;;;;14.60;102029.00;;;;5032138;28;20251;-79
2021/10/18 06:10:38;;;;;;;8.23;6.40;;;;;14.60;102029.00;;;;5039580;28;20498;-79
2021/10/18 06:13:06;;;;;;;8.15;6.45;;;;;14.60;102036.00;;;;5034008;28;20203;-79
2021/10/18 06:15:35;;;;;;;10.57;6.75;;;;;14.60;102032.00;;;;5042137;28;20258;-79
2021/10/18 06:18:11;;;;;;;8.02;6.05;;;;;14.50;102025.00;;;;5048013;28;20230;-79
2021/10/18 06:20:39;;;;;;;9.43;6.45;;;;;14.60;102032.00;;;;5035418;28;20195;-79
2021/10/18 06:23:07;;;;;;;9.20;6.15;;;;;14.60;102037.00;;;;5028658;28;20550;-79
2021/10/18 06:25:34;;;;;;;10.45;7.28;;;;;14.60;102036.00;;;;5038749;28;20196;-79
2021/10/18 06:28:01;;;;;;;8.27;6.63;;;;;14.60;102033.00;;;;5042989;28;20196;-79
2021/10/18 06:30:29;;;;;;;9.32;6.57;;;;;14.60;102035.00;;;;5047677;28;20200;-79
2021/10/18 06:32:57;;;;;;;8.50;6.18;;;;;14.60;102044.00;;;;5032278;28;20203;-79
2021/10/18 06:35:25;;;;;;;8.55;6.68;;;;;14.70;102040.00;;;;5035220;28;20246;-79
2021/10/18 06:37:53;;;;;;;8.13;6.80;;;;;14.70;102032.00;;;;5029546;28;20195;-80
2021/10/18 06:40:20;;;;;;;9.15;6.85;;;;;14.70;102040.00;;;;5039666;28;20247;-81
2021/10/18 06:42:47;;;;;;;7.72;6.43;;;;;14.70;102049.00;;;;5041595;28;20209;-80
2021/10/18 06:45:15;;;;;;;9.27;7.32;;;;;14.80;102045.00;;;;5038611;28;20291;-80
2021/10/18 06:47:43;;;;;;;11.68;7.40;;;;;14.80;102046.00;;;;5046709;28;20630;-80
2021/10/18 06:50:12;;;;;;;10.80;7.78;;;;;14.80;102046.00;;;;5031109;28;20192;-79
2021/10/18 06:52:41;;;;;;;10.45;6.85;;;;;14.80;102054.00;;;;5030176;28;20215;-80
2021/10/18 06:55:11;;;;;;;10.75;6.90;;;;;14.90;102048.00;;;;5042596;28;20227;-80
2021/10/18 06:57:39;;;;;;;7.93;6.57;;;;;14.90;102051.00;;;;5035072;28;20470;-80
2021/10/18 07:00:08;;;;;;;10.15;7.15;;;;;14.90;102049.00;;;;5046423;28;20283;-77
2021/10/18 07:02:35;;;;;;;9.13;7.68;;;;;14.90;102038.00;;;;5034263;28;20215;-80
2021/10/18 07:05:03;;;;;;;10.27;7.40;;;;;15.00;102044.00;;;;5041725;28;20570;-80
2021/10/18 07:07:32;;;;;;;9.57;6.85;;;;;15.00;102044.00;;;;5028961;28;20212;-80
2021/10/18 07:10:00;;;;;;;9.63;6.88;;;;;15.10;102034.00;;;;5035398;28;20204;-81
2021/10/18 07:12:29;;;;;;;9.77;7.38;;;;;15.10;102039.00;;;;5048923;28;20210;-81
2021/10/18 07:14:57;;;;;;;9.88;7.20;;;;;15.10;102045.00;;;;5032917;28;20212;-79
2021/10/18 07:17:24;;;;;;;13.10;7.57;;;;;15.20;102052.00;;;;5028778;28;20235;-79
2021/10/18 07:19:51;;;;;;;10.05;7.03;;;;;15.20;102051.00;;;;5034737;28;20223;-79
2021/10/18 07:22:20;;;;;;;11.20;8.00;;;;;15.30;102055.00;;;;5027928;28;20196;-79
2021/10/18 07:24:49;;;;;;;10.55;7.65;;;;;15.30;102057.00;;;;5035353;28;20285;-80
2021/10/18 07:27:16;;;;;;;11.38;7.55;;;;;15.40;102050.00;;;;5042839;28;20203;-79
2021/10/18 07:29:44;;;;;;;11.80;7.85;;;;;15.50;102059.00;;;;5033745;28;20196;-78
2021/10/18 07:32:11;;;;;;;10.50;7.47;;;;;15.50;102052.00;;;;5034778;28;20192;-77
2021/10/18 07:34:38;;;;;;;9.73;7.72;;;;;15.60;102054.00;;;;5034844;28;20195;-78
2021/10/18 07:37:07;;;;;;;11.77;7.10;;;;;15.60;102057.00;;;;5031432;28;20608;-78
2021/10/18 07:39:35;;;;;;;11.00;7.88;;;;;15.70;102053.00;;;;5039407;28;20226;-77
2021/10/18 07:42:04;;;;;;;13.10;7.78;;;;;15.80;102055.00;;;;5032690;28;20196;-78
2021/10/18 07:44:31;;;;;;;12.00;8.32;;;;;15.80;102061.00;;;;5027529;28;20204;-78
2021/10/18 07:46:59;;;;;;;11.02;8.23;;;;;15.90;102061.00;;;;5026697;28;20658;-78
2021/10/18 07:49:28;;;;;;;11.27;7.88;;;;;16.00;102065.00;;;;5045203;28;20295;-77
2021/10/18 07:51:56;;;;;;;10.30;7.60;;;;;16.00;102069.00;;;;5026956;28;20295;-77
2021/10/18 07:54:27;;;;;;;11.50;8.23;;;;;16.10;102082.00;;;;5028350;28;20207;-77
2021/10/18 07:56:54;;;;;;;11.23;8.73;;;;;16.10;102077.00;;;;5026745;28;20697;-78
2021/10/18 07:59:22;;;;;;;12.65;8.60;;;;;16.10;102087.00;;;;5037972;28;20301;-78
2021/10/18 08:01:50;;;;;;;13.00;8.32;;;;;16.20;102090.00;;;;5037634;28;20197;-78
2021/10/18 08:04:17;;;;;;;13.35;8.70;;;;;16.20;102089.00;;;;5031010;28;20196;-77
2021/10/18 08:06:44;;;;;;;11.15;8.30;;;;;16.30;102091.00;;;;5027193;28;20200;-78
2021/10/18 08:09:12;;;;;;;11.20;8.20;;;;;16.40;102086.00;;;;5037907;28;20202;-77
2021/10/18 08:11:40;;;;;;;9.63;7.55;;;;;16.40;102087.00;;;;5044804;28;20723;-80
2021/10/18 08:14:07;;;;;;;10.73;7.97;;;;;16.50;102084.00;;;;5047138;28;20204;-78
2021/10/18 08:16:35;;;;;;;8.88;7.43;;;;;16.50;102091.00;;;;5038296;28;20256;-78
2021/10/18 08:19:03;;;;;;;12.60;8.07;;;;;16.60;102091.00;;;;5040280;28;20226;-79
2021/10/18 08:21:30;;;;;;;11.30;8.18;;;;;16.70;102081.00;;;;5050533;28;20203;-78
2021/10/18 08:23:57;;;;;;;11.25;8.00;;;;;16.70;102085.00;;;;5042988;28;20196;-78
2021/10/18 08:26:25;;;;;;;11.90;7.85;;;;;16.80;102093.00;;;;5030938;28;20200;-78
2021/10/18 08:28:52;;;;;;;12.05;8.07;;;;;16.80;102093.00;;;;5035890;28;20665;-79
2021/10/18 08:31:19;;;;;;;13.32;9.27;;;;;16.90;102093.00;;;;5043196;28;20201;-78
2021/10/18 08:33:50;;;;;;;15.98;8.65;;;;;16.90;102096.00;;;;5032553;28;20357;-78
2021/10/18 08:36:17;;;;;;;9.70;7.25;;;;;17.00;102106.00;;;;5031651;28;20203;-79
2021/10/18 08:38:47;;;;;;;11.32;7.55;;;;;17.00;102108.00;;;;5048584;28;20596;-79
2021/10/18 08:41:17;;;;;;;10.25;8.20;;;;;17.10;102104.00;;;;5048427;28;20698;-78
2021/10/18 08:46:29;;;;;;;11.13;6.68;;;;;17.20;102086.00;;;;5037024;28;20206;-78
2021/10/18 08:48:59;;;;;;;11.02;7.70;;;;;17.30;102078.00;;;;5041291;28;20211;-78
2021/10/18 08:51:26;;;;;;;10.90;8.10;;;;;17.30;102081.00;;;;5043541;28;20203;-78
2021/10/18 08:53:54;;;;;;;11.32;7.70;;;;;17.40;102087.00;;;;5045809;28;20204;-78
2021/10/18 08:56:21;;;;;;;11.30;7.85;;;;;17.50;102087.00;;;;5041605;28;20713;-78
2021/10/18 08:58:49;;;;;;;11.32;7.82;;;;;17.50;102075.00;;;;5029918;28;20228;-79
2021/10/18 09:01:17;;;;;;;10.40;6.80;;;;;17.60;102073.00;;;;5037912;28;20204;-80
2021/10/18 09:03:45;;;;;;;11.07;7.97;;;;;17.70;102079.00;;;;5049206;28;20207;-79
2021/10/18 09:06:16;;;;;;;10.38;7.90;;;;;17.70;102086.00;;;;5048939;28;20688;-78
2021/10/18 09:08:47;;;;;;;10.25;7.38;;;;;17.70;102075.00;;;;5034256;28;20208;-76
2021/10/18 09:11:16;;;;;;;9.90;6.97;;;;;17.80;102073.00;;;;5034079;28;20278;-77
2021/10/18 09:13:55;;;;;;;10.18;8.23;;;;;17.90;102073.00;;;;5040736;28;20205;-76
2021/10/18 09:16:24;;;;;;;9.38;7.07;;;;;17.90;102067.00;;;;5037143;28;20202;-76
2021/10/18 09:19:02;;;;;;;9.10;7.20;;;;;18.00;102060.00;;;;5033310;28;20224;-75
2021/10/18 09:21:32;;;;;;;9.45;6.90;;;;;18.10;102055.00;;;;5033531;28;20214;-75
2021/10/18 09:24:02;;;;;;;10.48;7.38;;;;;18.20;102052.00;;;;5038620;28;20191;-75
2021/10/18 09:26:31;;;;;;;11.25;8.13;;;;;18.20;102055.00;;;;5034393;28;20196;-76
2021/10/18 09:29:05;;;;;;;9.38;6.95;;;;;18.30;102060.00;;;;5038797;28;20680;-76
2021/10/18 09:31:32;;;;;;;9.23;7.13;;;;;18.30;102054.00;;;;5046434;28;20228;-75
2021/10/18 09:34:07;;;;;;;11.52;7.57;;;;;18.30;102053.00;;;;5049143;28;20196;-76
2021/10/18 09:36:36;;;;;;;10.98;7.82;;;;;18.40;102050.00;;;;5030827;28;20203;-75
2021/10/18 09:39:12;;;;;;;13.52;8.27;;;;;18.30;102057.00;;;;5028836;28;20305;-77
2021/10/18 09:41:43;;;;;;;9.05;6.88;;;;;18.40;102049.00;;;;5029654;28;20238;-77
2021/10/18 09:44:21;;;;;;;11.20;7.45;;;;;18.40;102040.00;;;;5029459;28;20610;-77
2021/10/18 09:47:05;;;;;;;9.68;6.88;;;;;18.30;102045.00;;;;5035762;28;20291;-77
2021/10/18 10:51:24;;;;;;;9.65;7.00;;;;;19.60;101989.00;;;;5040911;28;20212;-78
2021/10/18 10:53:54;;;;;;;9.48;6.80;;;;;19.70;101999.00;;;;5051035;28;21024;-78
2021/10/18 10:56:25;;;;;;;9.95;6.57;;;;;19.70;102003.00;;;;5033223;28;20191;-78
2021/10/18 10:59:12;;;;;;;11.57;8.50;;;;;19.70;102003.00;;;;5035142;28;20227;-78
2021/10/18 11:01:45;;;;;;;9.20;6.65;;;;;19.80;101997.00;;;;5029817;28;20203;-78
2021/10/18 11:04:41;;;;;;;10.85;7.10;;;;;19.70;101981.00;;;;5030060;28;20706;-77
2021/10/18 11:07:11;;;;;;;11.68;7.03;;;;;19.80;101991.00;;;;5034606;28;20196;-79
2021/10/18 11:09:40;;;;;;;9.20;7.35;;;;;19.90;101990.00;;;;5035035;28;20203;-78
2021/10/18 11:12:09;;;;;;;8.40;6.13;;;;;19.90;101988.00;;;;5034451;28;21174;-78
2021/10/18 11:14:38;;;;;;;9.00;6.80;;;;;20.00;101984.00;;;;5039879;28;20203;-78
2021/10/18 11:17:05;;;;;;;8.98;6.88;;;;;20.10;101974.00;;;;5043578;28;20195;-77
2021/10/18 11:19:33;;;;;;;9.80;7.15;;;;;20.10;101971.00;;;;5035869;28;20286;-77
2021/10/18 11:22:01;;;;;;;10.68;7.47;;;;;20.20;101974.00;;;;5029907;28;20204;-78
2021/10/18 11:24:40;;;;;;;10.20;7.50;;;;;20.10;101979.00;;;;5053572;28;20207;-77
2021/10/18 11:27:08;;;;;;;8.70;6.82;;;;;20.30;101961.00;;;;5038683;28;20582;-78
2021/10/18 11:29:37;;;;;;;10.65;7.53;;;;;20.30;101950.00;;;;5027156;28;20196;-78
2021/10/18 11:32:09;;;;;;;9.23;6.82;;;;;20.30;101948.00;;;;5039399;28;20203;-78
2021/10/18 11:34:38;;;;;;;9.35;6.18;;;;;20.40;101943.00;;;;5027592;28;20548;-78
2021/10/18 11:37:07;;;;;;;8.60;7.28;;;;;20.50;101937.00;;;;5026355;28;20205;-78
2021/10/18 11:39:34;;;;;;;8.82;6.60;;;;;20.60;101937.00;;;;5026955;28;20694;-78
2021/10/18 11:42:11;;;;;;;11.85;8.38;;;;;20.50;101933.00;;;;5037778;28;20208;-78
2021/10/18 11:44:48;;;;;;;10.02;7.32;;;;;20.50;101927.00;;;;5033768;28;20233;-78
2021/10/18 11:47:27;;;;;;;9.90;7.30;;;;;20.50;101931.00;;;;5040745;28;20202;-78
2021/10/18 11:50:06;;;;;;;10.95;6.82;;;;;20.60;101936.00;;;;5057434;28;20203;-78
2021/10/18 11:52:33;;;;;;;8.52;6.65;;;;;20.70;101924.00;;;;5042740;28;20572;-79
2021/10/18 11:55:01;;;;;;;9.07;6.88;;;;;20.70;101927.00;;;;5054651;28;20212;-78
2021/10/18 11:57:28;;;;;;;10.93;7.68;;;;;20.70;101925.00;;;;5036875;28;20239;-77
2021/10/18 11:59:57;;;;;;;9.25;7.22;;;;;20.70;101918.00;;;;5031363;28;20231;-78
2021/10/18 12:02:26;;;;;;;10.95;6.55;;;;;20.70;101918.00;;;;5036446;28;20196;-78
2021/10/18 12:04:57;;;;;;;8.52;6.70;;;;;20.70;101914.00;;;;5030919;28;20203;-77
2021/10/18 12:07:41;;;;;;;9.70;7.18;;;;;20.60;101910.00;;;;5032143;28;20204;-78
2021/10/18 12:10:23;;;;;;;9.43;6.35;;;;;20.60;101894.00;;;;5037205;28;20254;-77
2021/10/18 12:13:05;;;;;;;9.85;6.78;;;;;20.60;101893.00;;;;5030615;28;20200;-78
2021/10/18 12:15:37;;;;;;;7.22;5.78;;;;;20.70;101881.00;;;;5046649;28;20199;-77
2021/10/18 12:18:06;;;;;;;9.10;6.75;;;;;20.70;101877.00;;;;5032032;28;20642;-78
2021/10/18 12:20:34;;;;;;;7.32;6.00;;;;;20.70;101874.00;;;;5038151;28;20231;-78
2021/10/18 12:23:04;;;;;;;8.35;5.80;;;;;20.70;101871.00;;;;5038555;28;20204;-78
2021/10/18 12:25:33;;;;;;;9.23;6.22;;;;;20.70;101870.00;;;;5044551;28;20195;-78
2021/10/18 12:28:19;;;;;;;10.45;6.90;;;;;20.70;101860.00;;;;5036124;28;20690;-78
2021/10/18 12:30:48;;;;;;;9.25;6.82;;;;;20.70;101875.00;;;;5044776;28;20199;-78
2021/10/18 12:33:16;;;;;;;9.93;7.07;;;;;20.70;101870.00;;;;5044028;28;20581;-78
2021/10/18 12:35:56;;;;;;;7.43;6.20;;;;;20.80;101872.00;;;;5035272;28;20211;-78
2021/10/18 12:38:27;;;;;;;8.88;6.43;;;;;20.80;101874.00;;;;5030835;28;20208;-78
2021/10/18 12:41:08;;;;;;;9.60;7.10;;;;;20.80;101878.00;;;;5032365;28;20351;-78
2021/10/18 12:43:35;;;;;;;8.93;6.97;;;;;20.90;101890.00;;;;5029814;28;20211;-78
2021/10/18 12:46:17;;;;;;;9.05;7.28;;;;;20.90;101880.00;;;;5029920;28;20209;-78
2021/10/18 12:48:56;;;;;;;9.02;6.45;;;;;21.00;101880.00;;;;5030519;28;20200;-77
2021/10/18 12:51:44;;;;;;;9.60;6.43;;;;;21.00;101885.00;;;;5030671;28;20200;-78
2021/10/18 12:54:26;;;;;;;7.57;6.25;;;;;21.10;101879.00;;;;5045220;28;20199;-78
2021/10/18 12:57:06;;;;;;;8.80;6.93;;;;;21.10;101861.00;;;;5048797;28;20226;-78
2021/10/18 12:59:35;;;;;;;10.35;6.88;;;;;21.20;101874.00;;;;5035150;28;20216;-78
2021/10/18 13:02:26;;;;;;;8.32;6.13;;;;;21.10;101872.00;;;;5047978;28;20655;-77
2021/10/18 13:05:20;;;;;;;11.85;6.80;;;;;21.10;101880.00;;;;5040898;28;20208;-77
2021/10/18 13:07:53;;;;;;;8.95;6.00;;;;;21.20;101889.00;;;;5030280;28;20203;-78
2021/10/18 13:10:23;;;;;;;8.73;6.35;;;;;21.20;101878.00;;;;5034836;28;20667;-77
2021/10/18 13:12:51;;;;;;;12.00;6.72;;;;;21.30;101874.00;;;;5039723;28;20199;-77
2021/10/18 13:15:19;;;;;;;8.77;5.88;;;;;21.30;101879.00;;;;5038774;28;20612;-78
2021/10/18 13:17:49;;;;;;;9.27;5.93;;;;;21.30;101881.00;;;;5032941;28;20652;-77
2021/10/18 13:20:18;;;;;;;7.70;5.22;;;;;21.30;101879.00;;;;5029818;28;20219;-76